sensor_id;sensor_type;location;lat;lon;timestamp;temperature;humidity
573;DHT22;271;51.114;13.780;2023-06-22T00:00:51;19.50;1.00
573;DHT22;271;51.114;13.780;2023-06-22T00:03:45;19.50;1.00
573;DHT22;271;51.114;13.780;2023-06-22T00:06:39;19.40;1.00
573;DHT22;271;51.114;13.780;2023-06-22T00:09:32;19.40;1.00
573;DHT22;271;51.114;13.780;2023-06-22T00:12:22;19.50;1.00
573;DHT22;271;51.114;13.780;2023-06-22T00:15:13;19.40;1.00
573;DHT22;271;51.114;13.780;2023-06-22T00:18:19;19.40;1.00
573;DHT22;271;51.114;13.780;2023-06-22T00:21:12;19.30;1.00
573;DHT22;271;51.114;13.780;2023-06-22T00:24:02;19.30;1.00
573;DHT22;271;51.114;13.780;2023-06-22T00:26:57;19.40;1.00
573;DHT22;271;51.114;13.780;2023-06-22T00:29:47;19.30;1.00
573;DHT22;271;51.114;13.780;2023-06-22T00:32:39;19.20;1.00
573;DHT22;271;51.114;13.780;2023-06-22T00:35:27;19.20;1.00
573;DHT22;271;51.114;13.780;2023-06-22T00:38:21;19.20;1.00
573;DHT22;271;51.114;13.780;2023-06-22T00:41:17;19.10;1.00
573;DHT22;271;51.114;13.780;2023-06-22T00:44:11;19.10;1.00
573;DHT22;271;51.114;13.780;2023-06-22T00:47:01;19.00;1.00
573;DHT22;271;51.114;13.780;2023-06-22T00:49:52;19.00;1.00
573;DHT22;271;51.114;13.780;2023-06-22T00:52:41;19.00;1.00
573;DHT22;271;51.114;13.780;2023-06-22T00:55:36;19.10;1.00
573;DHT22;271;51.114;13.780;2023-06-22T00:58:25;19.10;1.00
573;DHT22;271;51.114;13.780;2023-06-22T01:01:15;19.00;1.00
573;DHT22;271;51.114;13.780;2023-06-22T01:04:10;18.90;1.00
573;DHT22;271;51.114;13.780;2023-06-22T01:07:10;18.90;1.00
573;DHT22;271;51.114;13.780;2023-06-22T01:10:06;18.70;1.00
573;DHT22;271;51.114;13.780;2023-06-22T01:13:01;18.70;1.00
573;DHT22;271;51.114;13.780;2023-06-22T01:16:03;18.70;1.00
573;DHT22;271;51.114;13.780;2023-06-22T01:18:54;18.80;1.00
573;DHT22;271;51.114;13.780;2023-06-22T01:21:44;18.80;1.00
573;DHT22;271;51.114;13.780;2023-06-22T01:24:44;18.80;1.00
573;DHT22;271;51.114;13.780;2023-06-22T01:27:50;18.70;1.00
573;DHT22;271;51.114;13.780;2023-06-22T01:30:51;18.70;1.00
573;DHT22;271;51.114;13.780;2023-06-22T01:33:53;18.60;1.00
573;DHT22;271;51.114;13.780;2023-06-22T01:36:48;18.50;1.00
573;DHT22;271;51.114;13.780;2023-06-22T01:39:37;18.50;1.00
573;DHT22;271;51.114;13.780;2023-06-22T01:42:26;18.50;1.00
573;DHT22;271;51.114;13.780;2023-06-22T01:45:15;18.50;1.00
573;DHT22;271;51.114;13.780;2023-06-22T01:48:05;18.60;1.00
573;DHT22;271;51.114;13.780;2023-06-22T01:50:57;18.50;1.00
573;DHT22;271;51.114;13.780;2023-06-22T01:53:45;18.50;1.00
573;DHT22;271;51.114;13.780;2023-06-22T01:56:34;18.40;1.00
573;DHT22;271;51.114;13.780;2023-06-22T01:59:28;18.30;1.00
573;DHT22;271;51.114;13.780;2023-06-22T02:02:21;18.40;1.00
573;DHT22;271;51.114;13.780;2023-06-22T02:05:19;18.30;1.00
573;DHT22;271;51.114;13.780;2023-06-22T02:08:22;18.30;1.00
573;DHT22;271;51.114;13.780;2023-06-22T02:11:18;18.30;1.00
573;DHT22;271;51.114;13.780;2023-06-22T02:14:14;18.20;1.00
573;DHT22;271;51.114;13.780;2023-06-22T02:17:08;18.20;1.00
573;DHT22;271;51.114;13.780;2023-06-22T02:20:06;18.10;1.00
573;DHT22;271;51.114;13.780;2023-06-22T02:23:09;18.20;1.00
573;DHT22;271;51.114;13.780;2023-06-22T02:25:57;18.20;1.00
573;DHT22;271;51.114;13.780;2023-06-22T02:28:48;18.20;1.00
573;DHT22;271;51.114;13.780;2023-06-22T02:31:38;18.10;1.00
573;DHT22;271;51.114;13.780;2023-06-22T02:34:26;18.10;1.00
573;DHT22;271;51.114;13.780;2023-06-22T02:37:14;18.00;1.00
573;DHT22;271;51.114;13.780;2023-06-22T02:40:10;18.00;1.00
573;DHT22;271;51.114;13.780;2023-06-22T02:43:01;18.00;1.00
573;DHT22;271;51.114;13.780;2023-06-22T02:45:53;18.00;1.00
573;DHT22;271;51.114;13.780;2023-06-22T02:48:47;17.90;1.00
573;DHT22;271;51.114;13.780;2023-06-22T02:51:42;17.90;1.00
573;DHT22;271;51.114;13.780;2023-06-22T02:54:35;17.80;1.00
573;DHT22;271;51.114;13.780;2023-06-22T02:57:24;17.90;1.00
573;DHT22;271;51.114;13.780;2023-06-22T03:00:19;17.80;1.00
573;DHT22;271;51.114;13.780;2023-06-22T03:03:09;17.60;1.00
573;DHT22;271;51.114;13.780;2023-06-22T03:06:03;17.80;1.00
573;DHT22;271;51.114;13.780;2023-06-22T03:08:51;17.90;1.00
573;DHT22;271;51.114;13.780;2023-06-22T03:11:50;17.90;1.00
573;DHT22;271;51.114;13.780;2023-06-22T03:14:40;17.90;1.00
573;DHT22;271;51.114;13.780;2023-06-22T03:17:32;17.90;1.00
573;DHT22;271;51.114;13.780;2023-06-22T03:20:24;17.90;1.00
573;DHT22;271;51.114;13.780;2023-06-22T03:23:25;17.90;1.00
573;DHT22;271;51.114;13.780;2023-06-22T03:26:17;18.10;1.00
573;DHT22;271;51.114;13.780;2023-06-22T03:29:08;18.10;1.00
573;DHT22;271;51.114;13.780;2023-06-22T03:31:57;18.00;1.00
573;DHT22;271;51.114;13.780;2023-06-22T03:34:52;18.10;1.00
573;DHT22;271;51.114;13.780;2023-06-22T03:37:40;18.10;1.00
573;DHT22;271;51.114;13.780;2023-06-22T03:40:31;18.10;1.00
573;DHT22;271;51.114;13.780;2023-06-22T03:43:23;18.10;1.00
573;DHT22;271;51.114;13.780;2023-06-22T03:46:17;18.10;1.00
573;DHT22;271;51.114;13.780;2023-06-22T03:49:08;18.20;1.00
573;DHT22;271;51.114;13.780;2023-06-22T03:51:56;18.30;1.00
573;DHT22;271;51.114;13.780;2023-06-22T03:54:44;18.40;1.00
573;DHT22;271;51.114;13.780;2023-06-22T03:57:43;18.40;1.00
573;DHT22;271;51.114;13.780;2023-06-22T04:00:35;18.50;1.00
573;DHT22;271;51.114;13.780;2023-06-22T04:03:29;18.50;1.00
573;DHT22;271;51.114;13.780;2023-06-22T04:06:24;18.70;1.00
573;DHT22;271;51.114;13.780;2023-06-22T04:09:14;18.80;1.00
573;DHT22;271;51.114;13.780;2023-06-22T04:12:12;18.80;1.00
573;DHT22;271;51.114;13.780;2023-06-22T04:15:00;18.80;1.00
573;DHT22;271;51.114;13.780;2023-06-22T04:17:55;18.80;1.00
573;DHT22;271;51.114;13.780;2023-06-22T04:20:46;18.90;1.00
573;DHT22;271;51.114;13.780;2023-06-22T04:23:38;19.10;1.00
573;DHT22;271;51.114;13.780;2023-06-22T04:26:36;19.20;1.00
573;DHT22;271;51.114;13.780;2023-06-22T04:29:24;19.30;1.00
573;DHT22;271;51.114;13.780;2023-06-22T04:32:21;19.40;1.00
573;DHT22;271;51.114;13.780;2023-06-22T04:35:12;19.60;1.00
573;DHT22;271;51.114;13.780;2023-06-22T04:38:04;19.80;1.00
573;DHT22;271;51.114;13.780;2023-06-22T04:40:54;19.90;1.00
573;DHT22;271;51.114;13.780;2023-06-22T04:43:44;20.00;1.00
573;DHT22;271;51.114;13.780;2023-06-22T04:46:40;20.10;1.00
573;DHT22;271;51.114;13.780;2023-06-22T04:49:38;20.40;1.00
573;DHT22;271;51.114;13.780;2023-06-22T04:52:29;20.60;1.00
573;DHT22;271;51.114;13.780;2023-06-22T04:55:19;20.70;1.00
573;DHT22;271;51.114;13.780;2023-06-22T04:58:15;20.90;1.00
573;DHT22;271;51.114;13.780;2023-06-22T05:01:05;21.10;1.00
573;DHT22;271;51.114;13.780;2023-06-22T05:03:58;21.40;1.00
573;DHT22;271;51.114;13.780;2023-06-22T05:06:54;21.70;1.00
573;DHT22;271;51.114;13.780;2023-06-22T05:09:47;22.00;1.00
573;DHT22;271;51.114;13.780;2023-06-22T05:12:36;22.60;1.00
573;DHT22;271;51.114;13.780;2023-06-22T05:15:26;23.20;1.00
573;DHT22;271;51.114;13.780;2023-06-22T05:18:20;23.90;1.00
573;DHT22;271;51.114;13.780;2023-06-22T05:21:13;24.60;1.00
573;DHT22;271;51.114;13.780;2023-06-22T05:24:01;25.60;1.00
573;DHT22;271;51.114;13.780;2023-06-22T05:26:51;26.30;1.00
573;DHT22;271;51.114;13.780;2023-06-22T05:29:39;26.90;1.00
573;DHT22;271;51.114;13.780;2023-06-22T05:32:30;27.30;1.00
573;DHT22;271;51.114;13.780;2023-06-22T05:35:21;27.90;1.00
573;DHT22;271;51.114;13.780;2023-06-22T05:38:09;28.40;1.00
573;DHT22;271;51.114;13.780;2023-06-22T05:40:57;28.70;1.00
573;DHT22;271;51.114;13.780;2023-06-22T05:43:46;29.40;1.00
573;DHT22;271;51.114;13.780;2023-06-22T05:46:36;29.80;1.00
573;DHT22;271;51.114;13.780;2023-06-22T05:49:34;30.20;1.00
573;DHT22;271;51.114;13.780;2023-06-22T05:52:26;30.40;1.00
573;DHT22;271;51.114;13.780;2023-06-22T05:55:16;30.60;1.00
573;DHT22;271;51.114;13.780;2023-06-22T05:58:09;30.70;1.00
573;DHT22;271;51.114;13.780;2023-06-22T06:01:02;30.70;1.00
573;DHT22;271;51.114;13.780;2023-06-22T06:03:52;30.60;1.00
573;DHT22;271;51.114;13.780;2023-06-22T06:06:42;31.30;1.00
573;DHT22;271;51.114;13.780;2023-06-22T06:09:30;31.70;1.00
573;DHT22;271;51.114;13.780;2023-06-22T06:12:22;32.10;1.00
573;DHT22;271;51.114;13.780;2023-06-22T06:15:16;32.70;1.00
573;DHT22;271;51.114;13.780;2023-06-22T06:18:11;33.00;1.00
573;DHT22;271;51.114;13.780;2023-06-22T06:21:04;33.00;1.00
573;DHT22;271;51.114;13.780;2023-06-22T06:23:57;32.50;1.00
573;DHT22;271;51.114;13.780;2023-06-22T06:26:46;32.80;1.00
573;DHT22;271;51.114;13.780;2023-06-22T06:29:42;33.60;1.00
573;DHT22;271;51.114;13.780;2023-06-22T06:32:37;33.70;1.00
573;DHT22;271;51.114;13.780;2023-06-22T06:35:27;32.20;1.00
573;DHT22;271;51.114;13.780;2023-06-22T06:38:21;30.30;1.00
573;DHT22;271;51.114;13.780;2023-06-22T06:41:10;28.40;1.00
573;DHT22;271;51.114;13.780;2023-06-22T06:44:03;28.20;1.00
573;DHT22;271;51.114;13.780;2023-06-22T06:46:53;27.70;1.00
573;DHT22;271;51.114;13.780;2023-06-22T06:49:44;27.70;1.00
573;DHT22;271;51.114;13.780;2023-06-22T06:52:41;27.60;1.00
573;DHT22;271;51.114;13.780;2023-06-22T06:55:34;27.80;1.00
573;DHT22;271;51.114;13.780;2023-06-22T06:58:27;27.70;1.00
573;DHT22;271;51.114;13.780;2023-06-22T07:01:18;27.60;1.00
573;DHT22;271;51.114;13.780;2023-06-22T07:04:17;27.60;1.00
573;DHT22;271;51.114;13.780;2023-06-22T07:07:05;27.90;1.00
573;DHT22;271;51.114;13.780;2023-06-22T07:09:54;28.40;1.00
573;DHT22;271;51.114;13.780;2023-06-22T07:12:49;29.40;1.00
573;DHT22;271;51.114;13.780;2023-06-22T07:15:41;30.30;1.00
573;DHT22;271;51.114;13.780;2023-06-22T07:18:31;31.50;1.00
573;DHT22;271;51.114;13.780;2023-06-22T07:21:25;32.30;1.00
573;DHT22;271;51.114;13.780;2023-06-22T07:24:14;32.60;1.00
573;DHT22;271;51.114;13.780;2023-06-22T07:27:03;33.40;1.00
573;DHT22;271;51.114;13.780;2023-06-22T07:30:01;34.00;1.00
573;DHT22;271;51.114;13.780;2023-06-22T07:32:51;34.00;1.00
573;DHT22;271;51.114;13.780;2023-06-22T07:35:44;33.90;1.00
573;DHT22;271;51.114;13.780;2023-06-22T07:38:38;34.70;1.00
573;DHT22;271;51.114;13.780;2023-06-22T07:41:27;34.00;1.00
573;DHT22;271;51.114;13.780;2023-06-22T07:44:16;33.70;1.00
573;DHT22;271;51.114;13.780;2023-06-22T07:47:06;33.70;1.00
573;DHT22;271;51.114;13.780;2023-06-22T07:49:58;33.80;1.00
573;DHT22;271;51.114;13.780;2023-06-22T07:52:54;33.40;1.00
573;DHT22;271;51.114;13.780;2023-06-22T07:55:51;32.70;1.00
573;DHT22;271;51.114;13.780;2023-06-22T07:58:39;32.80;1.00
573;DHT22;271;51.114;13.780;2023-06-22T08:01:32;33.60;1.00
573;DHT22;271;51.114;13.780;2023-06-22T08:04:20;34.50;1.00
573;DHT22;271;51.114;13.780;2023-06-22T08:07:15;34.90;1.00
573;DHT22;271;51.114;13.780;2023-06-22T08:10:06;34.80;1.00
573;DHT22;271;51.114;13.780;2023-06-22T08:13:00;34.80;1.00
573;DHT22;271;51.114;13.780;2023-06-22T08:15:48;35.20;1.00
573;DHT22;271;51.114;13.780;2023-06-22T08:18:41;35.40;1.00
573;DHT22;271;51.114;13.780;2023-06-22T08:21:34;35.20;1.00
573;DHT22;271;51.114;13.780;2023-06-22T08:24:28;34.50;1.00
573;DHT22;271;51.114;13.780;2023-06-22T08:27:20;34.50;1.00
573;DHT22;271;51.114;13.780;2023-06-22T08:30:10;33.80;1.00
573;DHT22;271;51.114;13.780;2023-06-22T08:32:58;33.30;1.00
573;DHT22;271;51.114;13.780;2023-06-22T08:35:46;32.80;1.00
573;DHT22;271;51.114;13.780;2023-06-22T08:38:33;32.90;1.00
573;DHT22;271;51.114;13.780;2023-06-22T08:41:22;33.00;1.00
573;DHT22;271;51.114;13.780;2023-06-22T08:44:11;33.20;1.00
573;DHT22;271;51.114;13.780;2023-06-22T08:46:59;33.10;1.00
573;DHT22;271;51.114;13.780;2023-06-22T08:49:47;32.30;1.00
573;DHT22;271;51.114;13.780;2023-06-22T08:52:34;32.10;1.00
573;DHT22;271;51.114;13.780;2023-06-22T08:55:22;31.80;1.00
573;DHT22;271;51.114;13.780;2023-06-22T08:58:11;31.20;1.00
573;DHT22;271;51.114;13.780;2023-06-22T09:00:59;31.30;1.00
573;DHT22;271;51.114;13.780;2023-06-22T09:03:47;32.00;1.00
573;DHT22;271;51.114;13.780;2023-06-22T09:06:40;32.40;1.00
573;DHT22;271;51.114;13.780;2023-06-22T09:09:31;32.90;1.00
573;DHT22;271;51.114;13.780;2023-06-22T09:12:20;33.40;1.00
573;DHT22;271;51.114;13.780;2023-06-22T09:15:13;33.40;1.00
573;DHT22;271;51.114;13.780;2023-06-22T09:18:01;32.60;1.00
573;DHT22;271;51.114;13.780;2023-06-22T09:20:49;31.60;1.00
573;DHT22;271;51.114;13.780;2023-06-22T09:23:37;31.60;1.00
573;DHT22;271;51.114;13.780;2023-06-22T09:26:24;31.70;1.00
573;DHT22;271;51.114;13.780;2023-06-22T09:29:12;31.60;1.00
573;DHT22;271;51.114;13.780;2023-06-22T09:32:01;31.30;1.00
573;DHT22;271;51.114;13.780;2023-06-22T09:34:49;31.50;1.00
573;DHT22;271;51.114;13.780;2023-06-22T09:37:37;31.70;1.00
573;DHT22;271;51.114;13.780;2023-06-22T09:40:24;31.50;1.00
573;DHT22;271;51.114;13.780;2023-06-22T09:43:12;31.20;1.00
573;DHT22;271;51.114;13.780;2023-06-22T09:46:00;31.20;1.00
573;DHT22;271;51.114;13.780;2023-06-22T09:48:49;31.20;1.00
573;DHT22;271;51.114;13.780;2023-06-22T09:51:37;30.60;1.00
573;DHT22;271;51.114;13.780;2023-06-22T09:54:25;30.60;1.00
573;DHT22;271;51.114;13.780;2023-06-22T09:57:13;30.90;1.00
573;DHT22;271;51.114;13.780;2023-06-22T10:00:00;31.10;1.00
573;DHT22;271;51.114;13.780;2023-06-22T10:02:52;30.80;1.00
573;DHT22;271;51.114;13.780;2023-06-22T10:05:41;30.30;1.00
573;DHT22;271;51.114;13.780;2023-06-22T10:08:29;30.10;1.00
573;DHT22;271;51.114;13.780;2023-06-22T10:11:17;30.20;1.00
573;DHT22;271;51.114;13.780;2023-06-22T10:14:04;30.80;1.00
573;DHT22;271;51.114;13.780;2023-06-22T10:16:52;31.70;1.00
573;DHT22;271;51.114;13.780;2023-06-22T10:19:40;32.20;1.00
573;DHT22;271;51.114;13.780;2023-06-22T10:22:29;31.80;1.00
573;DHT22;271;51.114;13.780;2023-06-22T10:25:17;31.00;1.00
573;DHT22;271;51.114;13.780;2023-06-22T10:28:05;31.20;1.00
573;DHT22;271;51.114;13.780;2023-06-22T10:30:53;31.50;1.00
573;DHT22;271;51.114;13.780;2023-06-22T10:33:41;32.00;1.00
573;DHT22;271;51.114;13.780;2023-06-22T10:36:30;31.90;1.00
573;DHT22;271;51.114;13.780;2023-06-22T10:39:19;31.60;1.00
573;DHT22;271;51.114;13.780;2023-06-22T10:42:07;31.40;1.00
573;DHT22;271;51.114;13.780;2023-06-22T10:44:55;31.50;1.00
573;DHT22;271;51.114;13.780;2023-06-22T10:47:42;31.80;1.00
573;DHT22;271;51.114;13.780;2023-06-22T10:50:30;31.90;1.00
573;DHT22;271;51.114;13.780;2023-06-22T10:53:18;32.30;1.00
573;DHT22;271;51.114;13.780;2023-06-22T10:56:07;32.80;1.00
573;DHT22;271;51.114;13.780;2023-06-22T10:58:54;32.60;1.00
573;DHT22;271;51.114;13.780;2023-06-22T11:01:42;32.40;1.00
573;DHT22;271;51.114;13.780;2023-06-22T11:04:30;32.10;1.00
573;DHT22;271;51.114;13.780;2023-06-22T11:07:17;31.90;1.00
573;DHT22;271;51.114;13.780;2023-06-22T11:10:06;32.10;1.00
573;DHT22;271;51.114;13.780;2023-06-22T11:12:56;32.40;1.00
573;DHT22;271;51.114;13.780;2023-06-22T11:15:44;32.00;1.00
573;DHT22;271;51.114;13.780;2023-06-22T11:18:31;32.00;1.00
573;DHT22;271;51.114;13.780;2023-06-22T11:21:20;32.00;1.00
573;DHT22;271;51.114;13.780;2023-06-22T11:24:07;31.70;1.00
573;DHT22;271;51.114;13.780;2023-06-22T11:26:55;31.70;1.00
573;DHT22;271;51.114;13.780;2023-06-22T11:29:44;31.70;1.00
573;DHT22;271;51.114;13.780;2023-06-22T11:32:32;31.30;1.00
573;DHT22;271;51.114;13.780;2023-06-22T11:35:19;31.20;1.00
573;DHT22;271;51.114;13.780;2023-06-22T11:38:07;31.30;1.00
573;DHT22;271;51.114;13.780;2023-06-22T11:40:55;31.60;1.00
573;DHT22;271;51.114;13.780;2023-06-22T11:43:44;31.70;1.00
573;DHT22;271;51.114;13.780;2023-06-22T11:46:33;31.80;1.00
573;DHT22;271;51.114;13.780;2023-06-22T11:49:21;31.80;1.00
573;DHT22;271;51.114;13.780;2023-06-22T11:52:09;31.90;1.00
573;DHT22;271;51.114;13.780;2023-06-22T11:54:57;31.70;1.00
573;DHT22;271;51.114;13.780;2023-06-22T11:57:54;31.50;1.00
573;DHT22;271;51.114;13.780;2023-06-22T12:00:42;31.30;1.00
573;DHT22;271;51.114;13.780;2023-06-22T12:03:32;31.20;1.00
573;DHT22;271;51.114;13.780;2023-06-22T12:06:20;31.10;1.00
573;DHT22;271;51.114;13.780;2023-06-22T12:09:08;30.90;1.00
573;DHT22;271;51.114;13.780;2023-06-22T12:11:56;31.00;1.00
573;DHT22;271;51.114;13.780;2023-06-22T12:14:43;30.70;1.00
573;DHT22;271;51.114;13.780;2023-06-22T12:17:31;30.70;1.00
573;DHT22;271;51.114;13.780;2023-06-22T12:20:20;30.80;1.00
573;DHT22;271;51.114;13.780;2023-06-22T12:23:08;30.90;1.00
573;DHT22;271;51.114;13.780;2023-06-22T12:25:55;30.50;1.00
573;DHT22;271;51.114;13.780;2023-06-22T12:28:43;30.50;1.00
573;DHT22;271;51.114;13.780;2023-06-22T12:31:31;30.40;1.00
573;DHT22;271;51.114;13.780;2023-06-22T12:34:18;30.40;1.00
573;DHT22;271;51.114;13.780;2023-06-22T12:37:08;30.60;1.00
573;DHT22;271;51.114;13.780;2023-06-22T12:39:56;30.60;1.00
573;DHT22;271;51.114;13.780;2023-06-22T12:42:44;30.70;1.00
573;DHT22;271;51.114;13.780;2023-06-22T12:45:32;30.90;1.00
573;DHT22;271;51.114;13.780;2023-06-22T12:48:21;30.80;1.00
573;DHT22;271;51.114;13.780;2023-06-22T12:51:09;30.60;1.00
573;DHT22;271;51.114;13.780;2023-06-22T12:53:58;30.50;1.00
573;DHT22;271;51.114;13.780;2023-06-22T12:56:46;30.20;1.00
573;DHT22;271;51.114;13.780;2023-06-22T12:59:34;30.20;1.00
573;DHT22;271;51.114;13.780;2023-06-22T13:02:21;30.20;1.00
573;DHT22;271;51.114;13.780;2023-06-22T13:05:09;30.20;1.00
573;DHT22;271;51.114;13.780;2023-06-22T13:07:57;30.20;1.00
573;DHT22;271;51.114;13.780;2023-06-22T13:10:46;30.30;1.00
573;DHT22;271;51.114;13.780;2023-06-22T13:13:34;30.30;1.00
573;DHT22;271;51.114;13.780;2023-06-22T13:16:21;30.40;1.00
573;DHT22;271;51.114;13.780;2023-06-22T13:19:09;30.40;1.00
573;DHT22;271;51.114;13.780;2023-06-22T13:21:57;30.50;1.00
573;DHT22;271;51.114;13.780;2023-06-22T13:24:44;30.70;1.00
573;DHT22;271;51.114;13.780;2023-06-22T13:27:33;30.90;1.00
573;DHT22;271;51.114;13.780;2023-06-22T13:30:21;31.00;1.00
573;DHT22;271;51.114;13.780;2023-06-22T13:33:09;31.00;1.00
573;DHT22;271;51.114;13.780;2023-06-22T13:35:57;31.00;1.00
573;DHT22;271;51.114;13.780;2023-06-22T13:38:44;30.90;1.00
573;DHT22;271;51.114;13.780;2023-06-22T13:41:32;30.70;1.00
573;DHT22;271;51.114;13.780;2023-06-22T13:44:21;30.60;1.00
573;DHT22;271;51.114;13.780;2023-06-22T13:47:09;30.70;1.00
573;DHT22;271;51.114;13.780;2023-06-22T13:49:56;30.70;1.00
573;DHT22;271;51.114;13.780;2023-06-22T13:52:45;30.70;1.00
573;DHT22;271;51.114;13.780;2023-06-22T13:55:32;30.80;1.00
573;DHT22;271;51.114;13.780;2023-06-22T13:58:20;30.80;1.00
573;DHT22;271;51.114;13.780;2023-06-22T14:01:09;30.90;1.00
573;DHT22;271;51.114;13.780;2023-06-22T14:03:57;30.80;1.00
573;DHT22;271;51.114;13.780;2023-06-22T14:06:45;30.80;1.00
573;DHT22;271;51.114;13.780;2023-06-22T14:09:32;30.80;1.00
573;DHT22;271;51.114;13.780;2023-06-22T14:12:20;30.90;1.00
573;DHT22;271;51.114;13.780;2023-06-22T14:15:08;30.90;1.00
573;DHT22;271;51.114;13.780;2023-06-22T14:17:57;30.90;1.00
573;DHT22;271;51.114;13.780;2023-06-22T14:20:45;30.80;1.00
573;DHT22;271;51.114;13.780;2023-06-22T14:23:34;30.60;1.00
573;DHT22;271;51.114;13.780;2023-06-22T14:26:21;30.60;1.00
573;DHT22;271;51.114;13.780;2023-06-22T14:29:09;30.40;1.00
573;DHT22;271;51.114;13.780;2023-06-22T14:31:57;30.40;1.00
573;DHT22;271;51.114;13.780;2023-06-22T14:34:47;30.20;1.00
573;DHT22;271;51.114;13.780;2023-06-22T14:37:36;30.20;1.00
573;DHT22;271;51.114;13.780;2023-06-22T14:40:24;30.20;1.00
573;DHT22;271;51.114;13.780;2023-06-22T14:43:11;30.20;1.00
573;DHT22;271;51.114;13.780;2023-06-22T14:45:59;30.10;1.00
573;DHT22;271;51.114;13.780;2023-06-22T14:48:47;30.20;1.00
573;DHT22;271;51.114;13.780;2023-06-22T14:51:36;30.30;1.00
573;DHT22;271;51.114;13.780;2023-06-22T14:54:24;30.40;1.00
573;DHT22;271;51.114;13.780;2023-06-22T14:57:11;30.60;1.00
573;DHT22;271;51.114;13.780;2023-06-22T15:00:05;30.50;1.00
573;DHT22;271;51.114;13.780;2023-06-22T15:02:53;30.50;1.00
573;DHT22;271;51.114;13.780;2023-06-22T15:05:41;30.40;1.00
573;DHT22;271;51.114;13.780;2023-06-22T15:08:30;30.30;1.00
573;DHT22;271;51.114;13.780;2023-06-22T15:11:18;30.20;1.00
573;DHT22;271;51.114;13.780;2023-06-22T15:14:05;30.20;1.00
573;DHT22;271;51.114;13.780;2023-06-22T15:16:53;30.20;1.00
573;DHT22;271;51.114;13.780;2023-06-22T15:19:41;30.20;1.00
573;DHT22;271;51.114;13.780;2023-06-22T15:22:29;30.30;1.00
573;DHT22;271;51.114;13.780;2023-06-22T15:25:19;30.30;1.00
573;DHT22;271;51.114;13.780;2023-06-22T15:28:09;30.30;1.00
573;DHT22;271;51.114;13.780;2023-06-22T15:30:57;30.20;1.00
573;DHT22;271;51.114;13.780;2023-06-22T15:33:44;30.20;1.00
573;DHT22;271;51.114;13.780;2023-06-22T15:36:32;30.10;1.00
573;DHT22;271;51.114;13.780;2023-06-22T15:39:20;30.10;1.00
573;DHT22;271;51.114;13.780;2023-06-22T15:42:11;30.10;1.00
573;DHT22;271;51.114;13.780;2023-06-22T15:44:58;30.10;1.00
573;DHT22;271;51.114;13.780;2023-06-22T15:47:46;30.00;1.00
573;DHT22;271;51.114;13.780;2023-06-22T15:50:34;30.00;1.00
573;DHT22;271;51.114;13.780;2023-06-22T15:53:22;30.00;1.00
573;DHT22;271;51.114;13.780;2023-06-22T15:56:09;29.90;1.00
573;DHT22;271;51.114;13.780;2023-06-22T15:58:59;30.00;1.00
573;DHT22;271;51.114;13.780;2023-06-22T16:01:47;29.90;1.00
573;DHT22;271;51.114;13.780;2023-06-22T16:04:35;29.80;1.00
573;DHT22;271;51.114;13.780;2023-06-22T16:07:22;29.80;1.00
573;DHT22;271;51.114;13.780;2023-06-22T16:10:10;29.90;1.00
573;DHT22;271;51.114;13.780;2023-06-22T16:13:00;29.90;1.00
573;DHT22;271;51.114;13.780;2023-06-22T16:15:49;29.90;1.00
573;DHT22;271;51.114;13.780;2023-06-22T16:18:37;29.90;1.00
573;DHT22;271;51.114;13.780;2023-06-22T16:21:28;29.90;1.00
573;DHT22;271;51.114;13.780;2023-06-22T16:24:15;29.80;1.00
573;DHT22;271;51.114;13.780;2023-06-22T16:27:03;29.80;1.00
573;DHT22;271;51.114;13.780;2023-06-22T16:29:51;29.70;1.00
573;DHT22;271;51.114;13.780;2023-06-22T16:32:49;29.80;1.00
573;DHT22;271;51.114;13.780;2023-06-22T16:35:37;29.70;1.00
573;DHT22;271;51.114;13.780;2023-06-22T16:38:27;29.60;1.00
573;DHT22;271;51.114;13.780;2023-06-22T16:41:16;29.50;1.00
573;DHT22;271;51.114;13.780;2023-06-22T16:44:04;29.50;1.00
573;DHT22;271;51.114;13.780;2023-06-22T16:46:53;29.50;1.00
573;DHT22;271;51.114;13.780;2023-06-22T16:49:42;29.50;1.00
573;DHT22;271;51.114;13.780;2023-06-22T16:52:29;29.50;1.00
573;DHT22;271;51.114;13.780;2023-06-22T16:55:17;29.50;1.00
573;DHT22;271;51.114;13.780;2023-06-22T16:58:09;29.40;1.00
573;DHT22;271;51.114;13.780;2023-06-22T17:00:59;29.40;1.00
573;DHT22;271;51.114;13.780;2023-06-22T17:03:54;29.30;1.00
573;DHT22;271;51.114;13.780;2023-06-22T17:06:51;29.30;1.00
573;DHT22;271;51.114;13.780;2023-06-22T17:09:44;29.20;1.00
573;DHT22;271;51.114;13.780;2023-06-22T17:12:32;29.20;1.00
573;DHT22;271;51.114;13.780;2023-06-22T17:15:21;29.20;1.00
573;DHT22;271;51.114;13.780;2023-06-22T17:18:09;29.20;1.00
573;DHT22;271;51.114;13.780;2023-06-22T17:20:57;29.10;1.00
573;DHT22;271;51.114;13.780;2023-06-22T17:23:47;29.00;1.00
573;DHT22;271;51.114;13.780;2023-06-22T17:26:35;28.90;1.00
573;DHT22;271;51.114;13.780;2023-06-22T17:29:28;28.80;1.00
573;DHT22;271;51.114;13.780;2023-06-22T17:32:20;28.80;1.00
573;DHT22;271;51.114;13.780;2023-06-22T17:35:10;28.60;1.00
573;DHT22;271;51.114;13.780;2023-06-22T17:37:58;28.60;1.00
573;DHT22;271;51.114;13.780;2023-06-22T17:40:48;28.60;1.00
573;DHT22;271;51.114;13.780;2023-06-22T17:43:55;28.50;1.00
573;DHT22;271;51.114;13.780;2023-06-22T17:46:45;28.40;1.00
573;DHT22;271;51.114;13.780;2023-06-22T17:49:33;28.50;1.00
573;DHT22;271;51.114;13.780;2023-06-22T17:52:21;28.40;1.00
573;DHT22;271;51.114;13.780;2023-06-22T17:55:09;28.30;1.00
573;DHT22;271;51.114;13.780;2023-06-22T17:57:59;28.20;1.00
573;DHT22;271;51.114;13.780;2023-06-22T18:00:47;28.10;1.00
573;DHT22;271;51.114;13.780;2023-06-22T18:03:35;28.10;1.00
573;DHT22;271;51.114;13.780;2023-06-22T18:06:26;27.90;1.00
573;DHT22;271;51.114;13.780;2023-06-22T18:09:16;27.90;1.00
573;DHT22;271;51.114;13.780;2023-06-22T18:12:06;27.80;1.00
573;DHT22;271;51.114;13.780;2023-06-22T18:14:55;27.70;1.00
573;DHT22;271;51.114;13.780;2023-06-22T18:17:43;27.70;1.00
573;DHT22;271;51.114;13.780;2023-06-22T18:20:32;27.60;1.00
573;DHT22;271;51.114;13.780;2023-06-22T18:23:21;27.50;1.00
573;DHT22;271;51.114;13.780;2023-06-22T18:26:10;27.40;1.00
573;DHT22;271;51.114;13.780;2023-06-22T18:28:58;27.40;1.00
573;DHT22;271;51.114;13.780;2023-06-22T18:31:47;27.30;1.00
573;DHT22;271;51.114;13.780;2023-06-22T18:34:35;27.20;1.00
573;DHT22;271;51.114;13.780;2023-06-22T18:37:24;27.20;1.00
573;DHT22;271;51.114;13.780;2023-06-22T18:40:13;27.10;1.00
573;DHT22;271;51.114;13.780;2023-06-22T18:43:03;27.10;1.00
573;DHT22;271;51.114;13.780;2023-06-22T18:45:51;27.10;1.00
573;DHT22;271;51.114;13.780;2023-06-22T18:48:40;27.00;1.00
573;DHT22;271;51.114;13.780;2023-06-22T18:51:27;26.80;1.00
573;DHT22;271;51.114;13.780;2023-06-22T18:54:19;26.80;1.00
573;DHT22;271;51.114;13.780;2023-06-22T18:57:13;26.80;1.00
573;DHT22;271;51.114;13.780;2023-06-22T19:00:04;26.80;1.00
573;DHT22;271;51.114;13.780;2023-06-22T19:02:59;26.80;1.00
573;DHT22;271;51.114;13.780;2023-06-22T19:05:49;26.80;1.00
573;DHT22;271;51.114;13.780;2023-06-22T19:09:14;26.70;1.00